Weather at Maleo Airport

Public forecast

Using degrees Celsius for public forecast. Weather courtesy of forecast.io.

Closest aviation weather report (METAR) to Maleo Airport

Closest report is Sultan Aji Muhammad Sulaiman Sepinggan International Airport, 291.5 nm (539.8 km) W.

2023/03/23 11:30 (retrieved 30 minutes ago)

WALL 231130Z 06007KT 9000 FEW020 27/26 Q1007 NOSIG

Closest aviation forecast (TAF) to Maleo Airport

Closest forecast is Soroako Airport, 26.8 nm (49.7 km) SW.

2023/03/23 06:00 (retrieved 6 hours ago)

TAF WAWS 230500Z 2306/2318 31005KT 9000 SCT019